Time;durP1;ratioP1;P1;durP2;ratioP2;P2;SDS_P1;SDS_P2;PMS_P1;PMS_P2;Temp;Humidity;BMP_temperature;BMP_pressure;BME280_temperature;BME280_humidity;BME280_pressure;Samples;Min_cycle;Max_cycle;Signal;HPM_P1;HPM_P2
2021/03/24 00:00:49;;;;;;;0.10;0.10;;;7.10;99.90;;;;;;4989164;28;20038;-83
2021/03/24 00:03:16;;;;;;;0.10;0.10;;;7.10;99.90;;;;;;4986623;28;20053;-83
2021/03/24 00:05:50;;;;;;;0.10;0.10;;;7.10;99.90;;;;;;4982023;28;20046;-83
2021/03/24 00:08:19;;;;;;;0.10;0.10;;;7.10;99.90;;;;;;4989530;28;20022;-83
2021/03/24 00:10:45;;;;;;;0.20;0.20;;;7.10;99.90;;;;;;4988137;28;20042;-83
2021/03/24 00:13:12;;;;;;;0.10;0.10;;;7.10;99.90;;;;;;4989687;28;20030;-84
2021/03/24 00:15:38;;;;;;;0.20;0.20;;;7.00;99.90;;;;;;4988411;28;20078;-83
2021/03/24 00:18:05;;;;;;;0.20;0.20;;;7.00;99.90;;;;;;4989601;28;20030;-83
2021/03/24 00:20:34;;;;;;;0.10;0.10;;;7.00;99.90;;;;;;4989474;28;20042;-84
2021/03/24 00:23:00;;;;;;;0.13;0.13;;;6.90;99.90;;;;;;4988857;28;20565;-84
2021/03/24 00:25:26;;;;;;;1.73;0.50;;;6.90;99.90;;;;;;4983164;28;20058;-83
2021/03/24 00:27:54;;;;;;;0.20;0.20;;;6.80;99.90;;;;;;4982589;28;20148;-82
2021/03/24 00:30:24;;;;;;;;;;;6.80;99.90;;;;;;4988243;28;20034;-82
2021/03/24 00:32:50;;;;;;;0.10;0.10;;;6.80;99.90;;;;;;4989415;28;19910;-84
2021/03/24 00:35:16;;;;;;;0.10;0.10;;;6.70;99.90;;;;;;4988935;28;20033;-83
2021/03/24 00:37:42;;;;;;;0.10;0.10;;;6.60;99.90;;;;;;4988641;28;20038;-84
2021/03/24 00:40:12;;;;;;;0.25;0.25;;;6.60;99.90;;;;;;4988594;28;20312;-83
2021/03/24 00:42:38;;;;;;;0.10;0.10;;;6.50;99.90;;;;;;4988051;28;20790;-84
2021/03/24 00:45:05;;;;;;;0.10;0.10;;;6.50;99.90;;;;;;4984115;28;20030;-84
2021/03/24 00:47:31;;;;;;;0.30;0.30;;;6.30;99.90;;;;;;4989054;28;20023;-84
2021/03/24 00:49:57;;;;;;;0.35;0.35;;;6.50;99.90;;;;;;4987299;28;20040;-84
2021/03/24 00:52:23;;;;;;;0.40;0.40;;;6.50;99.90;;;;;;4988038;28;20375;-84
2021/03/24 00:54:48;;;;;;;0.55;0.55;;;6.40;99.90;;;;;;4989782;28;20030;-84
2021/03/24 00:57:14;;;;;;;0.40;0.40;;;6.40;99.90;;;;;;4989423;28;20022;-84
2021/03/24 00:59:40;;;;;;;0.20;0.20;;;6.30;99.90;;;;;;4987700;28;20065;-84
2021/03/24 01:02:06;;;;;;;0.20;0.20;;;6.10;99.90;;;;;;4981238;28;20033;-84
2021/03/24 01:04:32;;;;;;;0.10;0.10;;;6.10;99.90;;;;;;4987935;28;20097;-84
2021/03/24 01:06:58;;;;;;;0.10;0.10;;;6.00;99.90;;;;;;4988876;28;20696;-83
2021/03/24 01:09:23;;;;;;;1.45;0.43;;;5.90;99.90;;;;;;4987187;28;20495;-83
2021/03/24 01:11:49;;;;;;;0.10;0.10;;;5.90;99.90;;;;;;4987785;28;20058;-83
2021/03/24 01:14:15;;;;;;;0.20;0.20;;;5.80;99.90;;;;;;4984533;28;20112;-83
2021/03/24 01:16:41;;;;;;;0.20;0.20;;;5.60;99.90;;;;;;4982608;28;20068;-84
2021/03/24 01:19:07;;;;;;;0.30;0.30;;;5.70;99.90;;;;;;4987935;28;20449;-84
2021/03/24 01:21:33;;;;;;;0.43;0.43;;;5.70;99.90;;;;;;4987304;28;20037;-83
2021/03/24 01:23:59;;;;;;;0.10;0.10;;;5.60;99.90;;;;;;4988637;28;20612;-84
2021/03/24 01:26:24;;;;;;;0.40;0.40;;;5.50;99.90;;;;;;4987253;28;20149;-84
2021/03/24 01:28:59;;;;;;;0.30;0.30;;;5.40;99.90;;;;;;4986627;28;20034;-84
2021/03/24 01:31:29;;;;;;;0.28;0.28;;;5.40;99.90;;;;;;4987107;28;20041;-84
2021/03/24 01:33:56;;;;;;;0.10;0.10;;;5.50;99.90;;;;;;4988249;28;20073;-84
2021/03/24 01:36:22;;;;;;;;;;;5.50;99.90;;;;;;4989200;28;20037;-84
2021/03/24 01:38:49;;;;;;;0.20;0.20;;;5.60;99.90;;;;;;4988261;28;19910;-84
2021/03/24 01:41:15;;;;;;;0.93;0.75;;;5.60;99.90;;;;;;4982240;28;20037;-84
2021/03/24 01:43:41;;;;;;;1.08;0.45;;;5.50;99.90;;;;;;4987566;28;20408;-85
2021/03/24 01:46:19;;;;;;;0.65;0.65;;;5.30;99.90;;;;;;4988207;28;20038;-84
2021/03/24 01:48:50;;;;;;;0.10;0.10;;;5.20;99.90;;;;;;4986966;28;20088;-85
2021/03/24 01:51:17;;;;;;;0.32;0.32;;;5.20;99.90;;;;;;4987025;28;20061;-84
2021/03/24 01:53:43;;;;;;;0.40;0.40;;;5.10;99.90;;;;;;4987526;28;20034;-84
2021/03/24 01:56:11;;;;;;;0.20;0.20;;;5.00;99.90;;;;;;4989336;28;20023;-84
2021/03/24 01:58:37;;;;;;;0.05;0.05;;;5.10;99.90;;;;;;4986034;28;20495;-84
2021/03/24 02:01:10;;;;;;;0.22;0.22;;;5.20;99.90;;;;;;4988439;28;20687;-83
2021/03/24 02:03:37;;;;;;;0.10;0.10;;;5.30;99.90;;;;;;4987864;28;20044;-83
2021/03/24 02:06:14;;;;;;;0.17;0.17;;;5.20;99.90;;;;;;4988420;28;20026;-83
2021/03/24 02:08:42;;;;;;;;;;;5.20;99.90;;;;;;4977337;28;20034;-83
2021/03/24 02:11:26;;;;;;;0.10;0.10;;;5.10;99.90;;;;;;4980569;28;19914;-83
2021/03/24 02:13:59;;;;;;;0.80;0.73;;;5.20;99.90;;;;;;4986221;28;20034;-83
2021/03/24 02:17:00;;;;;;;0.20;0.20;;;5.00;99.90;;;;;;4987614;28;20112;-83
2021/03/24 02:19:55;;;;;;;0.45;0.35;;;5.00;99.90;;;;;;4943279;29;20613;-83
2021/03/24 02:22:24;;;;;;;0.10;0.10;;;5.00;99.90;;;;;;4935756;28;20396;-83
2021/03/24 02:25:03;;;;;;;0.60;0.38;;;5.00;99.90;;;;;;4940344;28;20122;-83
2021/03/24 02:27:43;;;;;;;0.82;0.30;;;5.10;99.90;;;;;;4943912;28;20070;-83
2021/03/24 02:30:17;;;;;;;0.10;0.10;;;5.00;99.90;;;;;;4947540;28;20142;-83
2021/03/24 02:33:02;;;;;;;0.65;0.65;;;5.00;99.90;;;;;;4943758;29;20051;-83
2021/03/24 02:35:34;;;;;;;0.75;0.63;;;4.80;99.90;;;;;;4946829;28;20035;-83
2021/03/24 02:38:04;;;;;;;0.55;0.55;;;4.70;99.90;;;;;;4947268;29;20109;-83
2021/03/24 02:40:30;;;;;;;0.10;0.10;;;4.70;99.90;;;;;;4946191;29;20043;-83
2021/03/24 02:42:58;;;;;;;0.15;0.15;;;4.80;99.90;;;;;;4945924;29;20199;-84
2021/03/24 02:45:29;;;;;;;0.10;0.10;;;4.60;99.90;;;;;;4945724;28;20041;-84
2021/03/24 02:48:00;;;;;;;0.82;0.82;;;4.60;99.90;;;;;;4945893;29;20043;-84
2021/03/24 02:50:26;;;;;;;0.60;0.60;;;4.60;99.90;;;;;;4946349;29;20031;-84
2021/03/24 02:52:52;;;;;;;0.38;0.38;;;4.60;99.90;;;;;;4956970;28;20046;-84
2021/03/24 02:55:21;;;;;;;0.20;0.20;;;4.60;99.90;;;;;;4983896;28;20038;-83
2021/03/24 02:57:47;;;;;;;0.40;0.40;;;4.70;99.90;;;;;;4987764;28;20035;-83
2021/03/24 03:00:17;;;;;;;0.10;0.10;;;4.60;99.90;;;;;;4985886;28;20026;-83
2021/03/24 03:02:49;;;;;;;0.10;0.10;;;4.60;99.90;;;;;;4986700;28;20031;-83
2021/03/24 03:05:32;;;;;;;0.10;0.10;;;4.40;99.90;;;;;;4987321;28;20084;-83
2021/03/24 03:08:06;;;;;;;0.43;0.43;;;4.40;99.90;;;;;;4981590;28;20376;-83
2021/03/24 03:10:57;;;;;;;0.38;0.38;;;4.40;99.90;;;;;;4985074;28;20033;-82
2021/03/24 03:13:22;;;;;;;0.20;0.20;;;4.30;99.90;;;;;;4989252;28;20461;-83
2021/03/24 03:16:14;;;;;;;0.20;0.20;;;4.20;99.90;;;;;;4990162;28;20046;-83
2021/03/24 03:18:49;;;;;;;0.10;0.10;;;4.10;99.90;;;;;;4983978;28;20060;-83
2021/03/24 03:21:21;;;;;;;0.20;0.20;;;4.10;99.90;;;;;;4983855;28;20117;-83
2021/03/24 03:23:50;;;;;;;0.10;0.10;;;4.00;99.90;;;;;;4990534;28;20149;-83
2021/03/24 03:26:22;;;;;;;0.52;0.52;;;4.00;99.90;;;;;;4988448;28;20033;-83
2021/03/24 03:28:54;;;;;;;0.47;0.47;;;4.00;99.90;;;;;;4986587;28;20035;-83
2021/03/24 03:31:30;;;;;;;0.70;0.70;;;4.00;99.90;;;;;;4988264;28;20368;-83
2021/03/24 03:33:56;;;;;;;0.20;0.20;;;4.10;99.90;;;;;;4989660;28;20053;-83
2021/03/24 03:36:24;;;;;;;1.10;0.82;;;4.00;99.90;;;;;;4990143;28;20049;-83
2021/03/24 03:38:52;;;;;;;;;;;4.10;99.90;;;;;;4990530;28;20033;-83
2021/03/24 03:41:18;;;;;;;0.40;0.40;;;4.10;99.90;;;;;;4990019;28;19917;-84
2021/03/24 03:43:48;;;;;;;0.17;0.17;;;4.10;99.90;;;;;;4988062;28;20034;-84
2021/03/24 03:46:17;;;;;;;0.70;0.70;;;4.00;99.90;;;;;;4989627;28;20109;-83
2021/03/24 03:48:45;;;;;;;0.63;0.30;;;4.00;99.90;;;;;;4987476;28;20478;-83
2021/03/24 03:51:21;;;;;;;0.25;0.25;;;3.80;99.90;;;;;;4988586;28;20034;-83
2021/03/24 03:54:05;;;;;;;0.30;0.30;;;3.80;99.90;;;;;;4986908;28;20109;-83
2021/03/24 03:56:42;;;;;;;0.10;0.10;;;3.80;99.90;;;;;;4983070;28;20034;-83
2021/03/24 03:59:16;;;;;;;0.95;0.95;;;3.70;99.90;;;;;;4988309;28;20703;-84
2021/03/24 04:01:51;;;;;;;0.30;0.30;;;3.70;99.90;;;;;;4982547;28;20034;-83
2021/03/24 04:04:24;;;;;;;0.70;0.40;;;3.70;99.90;;;;;;4988350;28;20422;-84
2021/03/24 04:07:24;;;;;;;0.43;0.43;;;3.60;99.90;;;;;;4990619;28;20120;-84
2021/03/24 04:09:54;;;;;;;1.55;0.65;;;3.70;99.90;;;;;;4984696;28;20471;-84
2021/03/24 04:12:21;;;;;;;3.75;0.57;;;3.70;99.90;;;;;;4985386;28;20437;-84
2021/03/24 04:14:48;;;;;;;0.20;0.20;;;3.70;99.90;;;;;;4985268;28;20031;-84
2021/03/24 04:17:18;;;;;;;0.38;0.38;;;3.60;99.90;;;;;;4987861;28;20042;-84
2021/03/24 04:19:48;;;;;;;0.20;0.20;;;3.60;99.90;;;;;;4989705;28;20200;-83
2021/03/24 04:22:17;;;;;;;0.60;0.60;;;3.50;99.90;;;;;;4986323;28;20375;-82
2021/03/24 04:24:47;;;;;;;0.20;0.20;;;3.60;99.90;;;;;;4982646;28;20022;-83
2021/03/24 04:27:15;;;;;;;0.30;0.30;;;3.50;99.90;;;;;;4986121;28;20022;-82
2021/03/24 04:29:48;;;;;;;0.38;0.38;;;3.60;99.90;;;;;;4989690;28;20039;-82
2021/03/24 04:32:15;;;;;;;0.20;0.20;;;3.60;99.90;;;;;;4990117;28;20022;-82
2021/03/24 04:34:41;;;;;;;0.30;0.30;;;3.70;99.90;;;;;;4982560;28;20038;-83
2021/03/24 04:37:35;;;;;;;1.45;0.22;;;3.50;99.90;;;;;;4988422;28;20183;-83
2021/03/24 04:40:08;;;;;;;0.40;0.40;;;3.50;99.90;;;;;;4984647;28;20085;-83
2021/03/24 04:42:37;;;;;;;0.10;0.10;;;3.40;99.90;;;;;;4981879;28;20026;-83
2021/03/24 04:45:42;;;;;;;0.10;0.10;;;3.60;99.90;;;;;;4981429;28;20150;-83
2021/03/24 04:48:18;;;;;;;0.20;0.20;;;3.40;99.90;;;;;;4978082;28;20076;-83
2021/03/24 04:50:55;;;;;;;0.10;0.10;;;3.40;99.90;;;;;;4980375;28;20115;-83
2021/03/24 04:53:22;;;;;;;0.75;0.75;;;3.30;99.90;;;;;;4988317;28;20780;-83
2021/03/24 04:55:50;;;;;;;0.20;0.20;;;3.30;99.90;;;;;;4984448;28;20469;-84
2021/03/24 04:58:35;;;;;;;0.13;0.13;;;3.20;99.90;;;;;;4988314;28;20038;-83
2021/03/24 05:01:10;;;;;;;0.10;0.10;;;3.00;99.90;;;;;;4981172;28;20034;-83
2021/03/24 05:03:42;;;;;;;0.20;0.20;;;3.00;99.90;;;;;;4987840;28;20046;-83
2021/03/24 05:06:22;;;;;;;0.28;0.28;;;3.00;99.90;;;;;;4989281;28;20494;-83
2021/03/24 05:08:48;;;;;;;0.60;0.60;;;3.00;99.90;;;;;;4988638;28;20030;-83
2021/03/24 05:11:28;;;;;;;0.20;0.20;;;3.00;99.90;;;;;;4989544;28;20030;-83
2021/03/24 05:14:15;;;;;;;0.20;0.20;;;3.00;99.90;;;;;;4982273;28;20517;-83
2021/03/24 05:16:45;;;;;;;0.20;0.20;;;2.90;99.90;;;;;;4985627;28;20061;-83
2021/03/24 05:19:22;;;;;;;0.30;0.30;;;2.90;99.90;;;;;;4988148;28;20038;-83
2021/03/24 05:21:54;;;;;;;0.10;0.10;;;2.80;99.90;;;;;;4987182;28;20049;-83
2021/03/24 05:24:30;;;;;;;0.20;0.20;;;2.90;99.90;;;;;;4987291;28;20030;-83
2021/03/24 05:27:27;;;;;;;0.30;0.30;;;2.70;99.90;;;;;;4983495;28;20192;-84
2021/03/24 05:29:58;;;;;;;0.20;0.20;;;2.80;99.90;;;;;;4985400;28;20113;-83
2021/03/24 05:32:33;;;;;;;0.20;0.20;;;2.90;99.90;;;;;;4983935;28;20022;-83
2021/03/24 05:35:00;;;;;;;0.30;0.30;;;2.90;99.90;;;;;;4986305;28;20050;-84
2021/03/24 05:37:29;;;;;;;0.40;0.40;;;2.90;99.90;;;;;;4987538;28;20058;-83
2021/03/24 05:40:08;;;;;;;0.15;0.15;;;3.00;99.90;;;;;;4988253;28;20394;-83
2021/03/24 05:42:52;;;;;;;0.15;0.15;;;2.90;99.90;;;;;;4988167;28;20463;-84
2021/03/24 05:45:42;;;;;;;0.10;0.10;;;2.90;99.90;;;;;;4985963;28;20053;-85
2021/03/24 05:48:26;;;;;;;0.15;0.15;;;2.90;99.90;;;;;;4986850;28;20034;-85
2021/03/24 05:51:16;;;;;;;0.15;0.15;;;2.90;99.90;;;;;;4983489;28;20550;-85
2021/03/24 05:53:56;;;;;;;0.20;0.20;;;3.00;99.90;;;;;;4979307;28;20871;-84
2021/03/24 05:57:01;;;;;;;0.38;0.38;;;3.00;99.90;;;;;;4987273;28;20648;-84
2021/03/24 05:59:30;;;;;;;0.10;0.10;;;2.90;99.90;;;;;;4986500;28;20065;-84
2021/03/24 06:02:08;;;;;;;0.10;0.10;;;2.90;99.90;;;;;;4988129;28;20019;-83
2021/03/24 06:04:52;;;;;;;0.40;0.40;;;3.50;99.90;;;;;;4988160;28;20450;-83
2021/03/24 06:08:03;;;;;;;0.22;0.22;;;4.10;99.90;;;;;;4984102;28;20406;-83
2021/03/24 06:10:43;;;;;;;0.15;0.15;;;4.40;99.90;;;;;;4970606;28;20042;-84
2021/03/24 06:13:41;;;;;;;0.40;0.40;;;4.80;99.90;;;;;;4985713;28;20113;-83
2021/03/24 06:16:49;;;;;;;0.80;0.80;;;5.00;99.90;;;;;;4984749;28;20049;-83
2021/03/24 06:19:33;;;;;;;0.20;0.20;;;5.30;99.90;;;;;;4992448;28;20072;-84
2021/03/24 06:22:04;;;;;;;2.38;0.68;;;5.50;99.90;;;;;;4984410;28;20113;-84
2021/03/24 06:25:11;;;;;;;1.38;1.27;;;5.80;99.90;;;;;;4986613;28;20035;-85
2021/03/24 06:27:48;;;;;;;0.00;0.00;;;6.30;99.90;;;;;;4993636;28;20057;-84
2021/03/24 06:30:22;;;;;;;0.38;0.38;;;6.50;99.90;;;;;;4988005;28;20069;-84
2021/03/24 06:32:56;;;;;;;0.20;0.20;;;6.70;99.90;;;;;;4980816;28;20030;-85
2021/03/24 06:35:55;;;;;;;0.55;0.55;;;6.70;99.90;;;;;;4986312;28;20026;-84
2021/03/24 06:38:53;;;;;;;0.10;0.10;;;6.90;99.90;;;;;;4988152;28;20667;-84
2021/03/24 06:41:39;;;;;;;0.22;0.22;;;7.20;99.90;;;;;;4942833;29;20055;-85
2021/03/24 06:44:38;;;;;;;0.88;0.15;;;7.30;99.90;;;;;;4939673;28;20039;-84
2021/03/24 06:47:32;;;;;;;0.43;0.43;;;7.70;99.90;;;;;;4957621;28;20079;-84
2021/03/24 06:50:22;;;;;;;0.17;0.17;;;7.80;99.90;;;;;;4959680;28;20039;-84
2021/03/24 06:53:09;;;;;;;0.70;0.20;;;8.20;99.90;;;;;;4958261;28;20109;-85
2021/03/24 06:56:17;;;;;;;0.35;0.35;;;8.10;99.90;;;;;;4956691;28;20106;-85
2021/03/24 06:59:20;;;;;;;1.00;1.00;;;8.30;99.90;;;;;;4947685;28;20051;-85
2021/03/24 07:02:23;;;;;;;2.72;1.23;;;8.50;99.90;;;;;;4956992;28;20034;-85
2021/03/24 07:05:28;;;;;;;2.53;0.57;;;9.10;99.90;;;;;;4955471;28;20443;-84
2021/03/24 07:07:57;;;;;;;0.20;0.20;;;9.20;99.90;;;;;;4952629;28;20034;-84
2021/03/24 07:10:41;;;;;;;0.10;0.10;;;9.70;99.90;;;;;;4939246;28;20051;-84
2021/03/24 07:13:39;;;;;;;0.45;0.45;;;9.50;99.90;;;;;;4956733;28;20117;-83
2021/03/24 07:16:23;;;;;;;0.40;0.40;;;10.00;99.90;;;;;;4961904;28;20134;-83
2021/03/24 07:19:13;;;;;;;0.22;0.22;;;10.30;99.90;;;;;;4997864;28;20033;-83
2021/03/24 07:21:57;;;;;;;0.10;0.10;;;10.10;99.90;;;;;;4996511;28;20026;-83
2021/03/24 07:24:47;;;;;;;0.13;0.13;;;10.40;99.90;;;;;;4991284;28;20024;-82
2021/03/24 07:27:32;;;;;;;0.32;0.32;;;10.90;99.90;;;;;;4992974;28;20026;-83
2021/03/24 07:30:25;;;;;;;0.55;0.50;;;11.10;99.90;;;;;;4998289;28;20030;-83
2021/03/24 07:33:09;;;;;;;0.10;0.10;;;11.00;99.90;;;;;;4995257;28;20054;-83
2021/03/24 07:35:44;;;;;;;0.13;0.13;;;11.50;99.90;;;;;;4993035;28;20097;-83
2021/03/24 07:38:34;;;;;;;1.45;0.65;;;12.20;99.90;;;;;;4998988;28;20112;-83
2021/03/24 07:41:49;;;;;;;0.45;0.43;;;12.70;99.90;;;;;;4991098;28;20064;-85
2021/03/24 07:44:29;;;;;;;0.30;0.30;;;13.00;99.90;;;;;;4984460;28;20034;-84
2021/03/24 07:47:16;;;;;;;0.70;0.63;;;13.60;99.90;;;;;;4991027;28;20039;-84
2021/03/24 07:49:44;;;;;;;;;;;13.80;99.90;;;;;;4991935;28;20026;-84
2021/03/24 07:52:33;;;;;;;0.20;0.20;;;13.90;99.90;;;;;;4991463;28;20591;-84
2021/03/24 07:55:30;;;;;;;1.65;0.57;;;15.00;99.90;;;;;;4985256;28;20046;-84
2021/03/24 07:58:18;;;;;;;0.10;0.10;;;14.70;99.90;;;;;;4981523;28;20026;-84
2021/03/24 08:01:01;;;;;;;0.50;0.50;;;14.50;99.90;;;;;;4993193;28;20034;-84
2021/03/24 08:03:44;;;;;;;0.30;0.30;;;15.30;99.90;;;;;;4998378;28;20442;-84
2021/03/24 08:06:38;;;;;;;0.10;0.10;;;15.10;99.90;;;;;;4991226;28;20124;-84
2021/03/24 08:09:41;;;;;;;0.10;0.10;;;15.20;99.90;;;;;;4990895;28;20050;-84
2021/03/24 08:12:26;;;;;;;0.20;0.20;;;15.40;99.90;;;;;;4991208;28;20026;-84
2021/03/24 08:15:03;;;;;;;0.22;0.22;;;14.80;99.90;;;;;;4990064;28;20026;-84
2021/03/24 08:17:44;;;;;;;0.43;0.43;;;14.90;99.90;;;;;;4987689;28;20065;-85
2021/03/24 08:20:26;;;;;;;0.10;0.10;;;15.60;99.90;;;;;;4980890;28;20037;-85
2021/03/24 08:23:08;;;;;;;0.98;0.63;;;15.40;99.90;;;;;;4985648;28;20434;-84
2021/03/24 08:26:05;;;;;;;2.65;0.40;;;15.50;99.90;;;;;;4988576;28;20093;-84
2021/03/24 08:28:49;;;;;;;0.43;0.43;;;16.30;99.90;;;;;;4986158;28;20501;-85
2021/03/24 08:31:53;;;;;;;0.30;0.30;;;16.30;99.90;;;;;;4990201;28;20541;-84
2021/03/24 08:34:41;;;;;;;0.20;0.20;;;16.10;99.90;;;;;;4985653;28;20026;-85
2021/03/24 08:37:28;;;;;;;0.17;0.17;;;17.20;99.90;;;;;;4989728;28;20026;-84
2021/03/24 08:40:21;;;;;;;0.82;0.82;;;17.50;99.90;;;;;;4989705;28;20034;-84
2021/03/24 08:42:56;;;;;;;0.40;0.40;;;17.90;99.90;;;;;;4978470;28;20062;-84
2021/03/24 08:45:43;;;;;;;0.20;0.20;;;17.50;99.90;;;;;;4984412;28;20615;-84
2021/03/24 08:48:15;;;;;;;0.55;0.55;;;18.10;99.90;;;;;;4989023;28;20019;-84
2021/03/24 08:50:50;;;;;;;0.30;0.30;;;19.50;99.90;;;;;;4989562;28;20038;-84
2021/03/24 08:53:30;;;;;;;0.00;0.00;;;20.40;99.90;;;;;;4988635;28;20105;-87
2021/03/24 08:56:21;;;;;;;0.90;0.40;;;22.60;99.90;;;;;;4992263;28;20132;-86
2021/03/24 08:59:12;;;;;;;0.65;0.65;;;21.80;99.90;;;;;;4989744;28;20033;-86
2021/03/24 09:01:57;;;;;;;0.25;0.25;;;22.60;99.90;;;;;;4953592;28;20070;-86
2021/03/24 09:04:35;;;;;;;0.10;0.10;;;24.30;99.90;;;;;;4942650;28;20081;-87
2021/03/24 09:07:26;;;;;;;0.30;0.13;;;24.30;99.40;;;;;;4960153;28;20031;-87
2021/03/24 09:10:24;;;;;;;0.10;0.10;;;24.10;99.90;;;;;;4951291;28;20049;-86
2021/03/24 09:12:56;;;;;;;0.43;0.43;;;24.20;99.90;;;;;;4963670;28;20491;-86
2021/03/24 09:15:29;;;;;;;0.10;0.10;;;25.70;99.10;;;;;;4967645;28;20038;-86
2021/03/24 09:18:10;;;;;;;0.00;0.00;;;26.60;96.90;;;;;;4954383;28;20042;-86
2021/03/24 09:21:17;;;;;;;0.38;0.38;;;25.80;96.50;;;;;;4951552;28;20023;-86
2021/03/24 09:24:01;;;;;;;0.15;0.15;;;25.30;94.40;;;;;;4948677;29;20043;-86
2021/03/24 09:27:05;;;;;;;0.30;0.30;;;25.50;93.80;;;;;;4948706;29;20049;-86
2021/03/24 09:29:43;;;;;;;0.65;0.40;;;27.80;92.40;;;;;;4948643;29;20029;-86
2021/03/24 09:32:17;;;;;;;0.17;0.17;;;28.90;92.00;;;;;;4948434;29;20041;-86
2021/03/24 09:35:25;;;;;;;0.10;0.10;;;28.40;87.30;;;;;;4948710;29;20539;-87
2021/03/24 09:38:17;;;;;;;0.80;0.43;;;29.00;90.30;;;;;;4947907;29;20039;-87
2021/03/24 09:40:47;;;;;;;0.55;0.55;;;30.20;84.40;;;;;;4936847;29;20051;-87
2021/03/24 09:43:36;;;;;;;0.47;0.47;;;28.90;90.10;;;;;;4947548;29;20047;-87
2021/03/24 09:46:05;;;;;;;0.20;0.20;;;29.00;87.60;;;;;;4948008;29;20043;-87
2021/03/24 09:48:45;;;;;;;0.52;0.52;;;29.20;89.20;;;;;;4918240;29;20051;-87
2021/03/24 09:51:16;;;;;;;0.08;0.08;;;29.60;83.80;;;;;;4931785;29;20094;-86
2021/03/24 09:53:42;;;;;;;0.20;0.20;;;25.80;90.90;;;;;;4931176;29;20075;-86
2021/03/24 09:56:19;;;;;;;0.20;0.20;;;27.70;90.20;;;;;;4939387;28;20027;-86
2021/03/24 09:59:13;;;;;;;0.22;0.22;;;30.10;81.70;;;;;;4957076;28;20521;-86
2021/03/24 10:02:01;;;;;;;0.40;0.40;;;28.00;90.60;;;;;;4989041;28;20121;-84
2021/03/24 10:04:42;;;;;;;0.20;0.20;;;27.80;90.10;;;;;;4989004;28;20027;-86
2021/03/24 10:07:24;;;;;;;0.15;0.15;;;29.10;83.60;;;;;;4988754;28;20110;-87
2021/03/24 10:09:55;;;;;;;1.10;1.02;;;30.10;79.70;;;;;;4989202;28;20037;-87
2021/03/24 10:12:32;;;;;;;0.20;0.20;;;27.90;85.00;;;;;;4988705;28;20058;-87
2021/03/24 10:15:04;;;;;;;0.10;0.10;;;26.60;87.00;;;;;;4989108;28;20037;-86
2021/03/24 10:17:59;;;;;;;0.65;0.65;;;26.20;84.70;;;;;;4988454;28;20125;-86
2021/03/24 10:20:35;;;;;;;2.60;0.93;;;28.20;87.00;;;;;;4991756;28;20499;-86
2021/03/24 10:23:21;;;;;;;0.22;0.20;;;29.00;84.40;;;;;;4993248;28;20037;-86
2021/03/24 10:25:54;;;;;;;0.73;0.40;;;30.00;79.30;;;;;;4993094;28;20034;-86
2021/03/24 10:28:40;;;;;;;0.10;0.10;;;30.70;74.90;;;;;;4991799;28;20117;-87
2021/03/24 10:31:20;;;;;;;0.30;0.30;;;30.80;76.40;;;;;;4993011;28;20065;-86
2021/03/24 10:33:51;;;;;;;0.10;0.10;;;31.10;73.90;;;;;;4992788;28;20041;-86
2021/03/24 10:36:43;;;;;;;0.30;0.30;;;30.80;75.80;;;;;;4993069;28;20022;-86
2021/03/24 10:39:26;;;;;;;0.20;0.20;;;28.90;80.30;;;;;;4975535;28;20062;-86
2021/03/24 10:42:18;;;;;;;0.75;0.75;;;30.00;73.80;;;;;;4992667;28;20026;-86
2021/03/24 10:44:51;;;;;;;0.10;0.10;;;28.90;78.40;;;;;;4983246;28;20054;-87
2021/03/24 10:47:20;;;;;;;1.02;0.38;;;30.60;71.00;;;;;;4992505;28;20018;-86
2021/03/24 10:50:16;;;;;;;0.13;0.13;;;30.90;70.10;;;;;;4992725;28;20026;-86
2021/03/24 10:53:02;;;;;;;0.57;0.57;;;28.90;76.60;;;;;;4979730;28;20049;-86
2021/03/24 10:55:29;;;;;;;;;;;29.30;72.20;;;;;;4997022;28;20109;-85
2021/03/24 10:58:14;;;;;;;0.70;0.63;;;28.40;76.00;;;;;;4987428;28;19964;-86
2021/03/24 11:00:49;;;;;;;0.10;0.10;;;30.60;71.20;;;;;;4989772;28;20549;-86
2021/03/24 11:03:21;;;;;;;0.30;0.30;;;28.60;73.40;;;;;;4988832;28;20394;-86
2021/03/24 11:05:54;;;;;;;0.10;0.10;;;30.00;69.40;;;;;;4981797;28;20022;-86
2021/03/24 11:08:32;;;;;;;0.25;0.25;;;29.90;71.10;;;;;;4995948;28;20025;-86
2021/03/24 11:11:07;;;;;;;0.63;0.60;;;29.90;71.20;;;;;;4998733;28;20030;-86
2021/03/24 11:13:52;;;;;;;0.10;0.10;;;30.60;68.30;;;;;;4984106;28;20042;-86
2021/03/24 11:16:37;;;;;;;0.10;0.10;;;29.00;69.80;;;;;;4990684;28;20054;-86
2021/03/24 11:19:15;;;;;;;5.28;0.32;;;29.40;70.20;;;;;;4990439;28;20448;-86
2021/03/24 11:21:50;;;;;;;0.38;0.38;;;30.10;70.40;;;;;;4991594;28;20120;-86
2021/03/24 11:24:24;;;;;;;1.75;1.10;;;27.40;76.60;;;;;;4993349;28;20041;-86
2021/03/24 11:27:02;;;;;;;0.20;0.20;;;27.30;88.30;;;;;;4997353;28;20019;-86
2021/03/24 11:29:29;;;;;;;0.50;0.30;;;29.60;73.70;;;;;;4990538;28;20749;-86
2021/03/24 11:32:04;;;;;;;0.65;0.30;;;28.20;74.10;;;;;;4995992;28;20033;-86
2021/03/24 11:34:47;;;;;;;0.05;0.05;;;26.70;74.40;;;;;;4989623;28;20034;-86
2021/03/24 11:37:12;;;;;;;0.28;0.28;;;26.90;77.20;;;;;;4978745;28;20045;-85
2021/03/24 11:39:49;;;;;;;0.63;0.63;;;27.30;78.40;;;;;;4985846;28;20034;-86
2021/03/24 11:42:18;;;;;;;;;;;26.30;76.60;;;;;;4990489;28;20757;-85
2021/03/24 11:44:46;;;;;;;0.13;0.13;;;22.30;81.30;;;;;;4988871;28;19948;-86
2021/03/24 11:47:23;;;;;;;0.10;0.10;;;19.60;86.60;;;;;;4990391;28;20089;-86
2021/03/24 11:50:06;;;;;;;0.10;0.10;;;18.40;91.50;;;;;;4991087;28;20546;-85
2021/03/24 11:53:08;;;;;;;0.00;0.00;;;17.90;92.20;;;;;;4991023;28;20034;-86
2021/03/24 11:55:54;;;;;;;0.10;0.10;;;18.20;92.60;;;;;;4978776;28;20037;-86
2021/03/24 11:58:41;;;;;;;0.35;0.35;;;18.20;92.70;;;;;;4990665;28;20026;-85
2021/03/24 12:01:28;;;;;;;0.00;0.00;;;18.10;93.00;;;;;;4988546;28;20034;-85
2021/03/24 12:04:08;;;;;;;0.00;0.00;;;17.80;92.70;;;;;;4979914;28;20117;-86
2021/03/24 12:06:50;;;;;;;0.43;0.43;;;17.80;93.10;;;;;;4986354;28;20027;-87
2021/03/24 12:09:23;;;;;;;0.35;0.35;;;17.80;93.00;;;;;;4985458;28;20057;-85
2021/03/24 12:11:49;;;;;;;0.22;0.22;;;17.80;92.60;;;;;;4990203;28;20018;-86
2021/03/24 12:14:24;;;;;;;0.52;0.47;;;17.80;93.50;;;;;;4976973;28;20093;-85
2021/03/24 12:16:56;;;;;;;0.10;0.10;;;18.00;94.80;;;;;;4977851;28;20105;-84
2021/03/24 12:19:44;;;;;;;0.20;0.20;;;17.60;94.50;;;;;;4975488;28;20831;-85
2021/03/24 12:22:30;;;;;;;0.10;0.10;;;17.40;94.70;;;;;;4998918;28;20034;-85
2021/03/24 12:25:19;;;;;;;0.32;0.22;;;17.40;93.90;;;;;;4994816;28;20055;-84
2021/03/24 12:27:52;;;;;;;0.13;0.13;;;17.40;94.30;;;;;;4990216;28;20029;-85
2021/03/24 12:30:29;;;;;;;0.08;0.08;;;17.30;94.00;;;;;;4994239;28;20089;-84
2021/03/24 12:33:05;;;;;;;;;;;17.50;95.00;;;;;;4984719;28;20034;-85
2021/03/24 12:35:32;;;;;;;0.20;0.20;;;17.40;94.40;;;;;;4983335;28;20278;-86
2021/03/24 12:38:10;;;;;;;0.10;0.10;;;17.30;95.00;;;;;;4990166;28;20030;-86
2021/03/24 12:41:00;;;;;;;0.10;0.10;;;17.10;94.10;;;;;;4977189;28;20034;-85
2021/03/24 12:43:30;;;;;;;0.20;0.20;;;17.30;95.30;;;;;;4988476;28;20030;-86
2021/03/24 12:46:10;;;;;;;0.10;0.10;;;17.40;94.80;;;;;;4980299;28;20031;-86
2021/03/24 12:48:45;;;;;;;0.10;0.10;;;17.20;94.70;;;;;;5003286;28;20031;-86
2021/03/24 12:51:14;;;;;;;0.38;0.38;;;16.90;94.30;;;;;;4988639;28;20185;-85
2021/03/24 12:53:56;;;;;;;5.88;1.02;;;16.80;94.70;;;;;;4989627;28;20026;-86
2021/03/24 12:56:28;;;;;;;0.05;0.05;;;16.90;94.60;;;;;;4980328;28;20146;-85
2021/03/24 12:58:57;;;;;;;0.60;0.47;;;16.90;94.10;;;;;;4977298;28;20537;-86
2021/03/24 13:02:11;;;;;;;0.17;0.17;;;17.10;94.50;;;;;;4981864;28;20031;-86
2021/03/24 13:04:39;;;;;;;0.57;0.57;;;17.30;94.90;;;;;;4950088;28;20035;-86
2021/03/24 13:07:25;;;;;;;0.30;0.30;;;17.30;94.80;;;;;;4954911;28;20543;-86
2021/03/24 13:10:01;;;;;;;0.55;0.55;;;17.20;95.30;;;;;;4955832;28;20034;-86
2021/03/24 13:13:01;;;;;;;1.38;0.75;;;17.20;95.10;;;;;;4948722;28;20027;-85
2021/03/24 13:15:36;;;;;;;0.28;0.20;;;17.40;94.90;;;;;;4940696;28;20026;-86
2021/03/24 13:18:10;;;;;;;0.35;0.28;;;17.30;95.30;;;;;;4947990;28;20042;-86
2021/03/24 13:20:43;;;;;;;0.10;0.10;;;17.30;95.90;;;;;;4951432;28;20043;-86
2021/03/24 13:23:27;;;;;;;0.10;0.10;;;17.20;95.90;;;;;;4953246;28;20035;-86
2021/03/24 13:25:56;;;;;;;0.10;0.10;;;17.10;95.40;;;;;;4950202;28;20053;-86
2021/03/24 13:28:43;;;;;;;0.05;0.05;;;16.90;96.00;;;;;;4940363;28;20129;-85
2021/03/24 13:31:41;;;;;;;0.20;0.20;;;17.10;95.60;;;;;;4946075;28;20031;-85
2021/03/24 13:34:33;;;;;;;0.20;0.20;;;16.90;95.70;;;;;;4938058;29;20065;-85
2021/03/24 13:37:01;;;;;;;0.28;0.28;;;17.10;95.40;;;;;;4965398;28;20372;-85
2021/03/24 13:39:36;;;;;;;0.10;0.10;;;17.10;95.50;;;;;;4952857;28;20035;-85
2021/03/24 13:42:10;;;;;;;0.13;0.13;;;17.00;95.20;;;;;;4981934;28;20765;-85
2021/03/24 13:44:49;;;;;;;0.45;0.20;;;17.00;95.40;;;;;;4982986;28;20408;-86
2021/03/24 13:47:24;;;;;;;0.10;0.08;;;16.90;95.20;;;;;;4986255;28;20022;-85
2021/03/24 13:49:54;;;;;;;0.35;0.35;;;16.80;95.60;;;;;;4981654;28;20026;-85
2021/03/24 13:52:48;;;;;;;1.45;0.65;;;17.00;96.40;;;;;;4988093;28;20025;-86